KRNT - Renton, Washington, USA
Distance from station: W 21mi, 33km
Updated: Tue, 31-Mar-2020 1:02am PDT
Light rain, Overcast
Light rain, Overcast
 Wind from S
Wind: S 5 mph , 7 km/h
Temperature: 41°F , 5°C
Wind Chill: 38°F , 3°C
Dew Point: 37°F , 3°C
Humidity: 87%
Barometer: 29.93 inHg , 1013.5 hPa
Visibility: 7 miles , 11 km
Cloud details: 1300 ft
1800 ft
2020/03/31 08:02 KRNT 310802Z AUTO 17004KT 7SM -RA BKN013 OVC018 05/03 A2993 RMK AO2 P0000 T00500033
KBFI - Seattle/Boeing, Washington, USA
Distance from station: W 25mi, 41km
Updated: Tue, 31-Mar-2020 12:53am PDT

 Wind from SSE
Wind: SSE 6 mph , 9 km/h
Temperature: 41°F , 5°C
Wind Chill: 37°F , 3°C
Dew Point: 37°F , 3°C
Humidity: 87%
Barometer: 29.92 inHg , 1013.2 hPa
Visibility: 10 miles , 16 km
Cloud details: 3700 ft
8000 ft
2020/03/31 07:53 KBFI 310753Z 16005KT 10SM FEW037 OVC080 05/03 A2992 RMK AO2 RAE38 SLP133 P0000 T00500033 401000039
 
KSEA - Seattle/Metro, Washington, USA
Distance from station: W 25mi, 41km
Updated: Tue, 31-Mar-2020 12:53am PDT

 Wind from SSW
Wind: SSW 9 mph , 15 km/h
Temperature: 43°F , 6°C
Wind Chill: 38°F , 3°C
Dew Point: 39°F , 4°C
Humidity: 87%
Barometer: 29.92 inHg , 1013.2 hPa
Visibility: 10 miles , 16 km
Cloud details: 700 ft
1400 ft
3300 ft
2020/03/31 07:53 KSEA 310753Z 20008KT 10SM SCT007 BKN014 OVC033 06/04 A2992 RMK AO2 RAB0657E15B24E44 SLP138 P0000 T00560039 401000039
KSMP - Stampede Pass, Washington, USA
Distance from station: SE 26mi, 41km
Updated: Tue, 31-Mar-2020 12:56am PDT
Snow, Freezing, Fog, Overcast
Snow, Freezing, Fog, Overcast
 Wind from varies
Wind: varies 3 mph , 6 km/h
Temperature: 28°F , -2°C
Dew Point: 27°F , -3°C
Humidity: 93%
Barometer: 29.80 inHg , 1009.1 hPa
Summary: Snow, Freezing, Fog
Visibility: 1/2 mile , 0.8 km
Cloud details: 600 ft
2020/03/31 07:56 KSMP 310756Z AUTO VRB03KT 1/2SM SN FZFG VV006 M02/M03 A2980 RMK AO2 SLP114 P0007 T10171028
 
KPLU - Puyallup/Thun, Washington, USA
Distance from station: SW 36mi, 59km
Updated: Tue, 31-Mar-2020 12:55am PDT

 Wind from calm
Wind: Calm
Temperature: 41°F , 5°C
Dew Point: 39°F , 4°C
Humidity: 93%
Barometer: 29.93 inHg , 1013.5 hPa
Visibility: 10 miles , 16 km
Cloud details: 3100 ft
3600 ft
4700 ft
2020/03/31 07:55 KPLU 310755Z AUTO 00000KT 10SM FEW031 SCT036 BKN047 05/04 A2993 RMK AO2
KPAE - Everett, Washington, USA
Distance from station: NW 37mi, 60km
Updated: Tue, 31-Mar-2020 1:03am PDT

 Wind from S
Wind: S 13 mph , 20 km/h
Temperature: 39°F , 4°C
Wind Chill: 31°F , -1°C
Dew Point: 36°F , 2°C
Humidity: 87%
Barometer: 29.90 inHg , 1012.5 hPa
Visibility: 10 miles , 16 km
Cloud details: 1500 ft
2020/03/31 08:03 KPAE 310803Z AUTO 18011KT 10SM OVC015 04/02 A2990 RMK AO2 T00440022
 
KTIW - Tacoma, Washington, USA
Distance from station: WSW 41mi, 66km
Updated: Tue, 31-Mar-2020 12:53am PDT
Light rain, Overcast
Light rain, Overcast
 Wind from SSW
Wind: SSW 12 mph , 19 km/h
Temperature: 39°F , 4°C
Wind Chill: 32°F , 0°C
Dew Point: 37°F , 3°C
Humidity: 93%
Barometer: 29.93 inHg , 1013.5 hPa
Visibility: 10 miles , 16 km
Cloud details: 1000 ft
2100 ft
2020/03/31 07:53 KTIW 310753Z AUTO 21010KT 10SM -RA BKN010 OVC021 04/03 A2993 RMK AO2 RAB09 SLP136 P0000 T00440033 400890039
KTCM - Tacoma/Mc Chord, Washington, USA
Distance from station: SW 42mi, 67km
Updated: Tue, 31-Mar-2020 12:58am PDT

 Wind from SSW
Wind: SSW 7 mph , 11 km/h
Temperature: 41°F , 5°C
Wind Chill: 36°F , 2°C
Dew Point: 37°F , 3°C
Humidity: 87%
Barometer: 29.93 inHg , 1013.5 hPa
Visibility: 10 miles , 16 km
Cloud details: 2500 ft
3600 ft
2020/03/31 07:58 KTCM 310758Z AUTO 21006KT 10SM BKN025 BKN036 05/03 A2993 RMK AO2 RAB41E55 BKN025 V OVC SLP141 P0000 T00460029 400950045 $
 
KPWT - Bremerton Ntnl, Washington, USA
Distance from station: W 45mi, 73km
Updated: Tue, 31-Mar-2020 12:56am PDT

 Wind from S
Wind: S 8 mph , 13 km/h
Temperature: 37°F , 3°C
Wind Chill: 31°F , -1°C
Dew Point: 36°F , 2°C
Humidity: 93%
Barometer: 29.91 inHg , 1012.9 hPa
Visibility: 10 miles , 16 km
2020/03/31 07:56 KPWT 310756Z AUTO 19007KT 10SM CLR 03/02 A2991 RMK AO2 RAB06E29UPB40E52 SLP135 P0001 T00280022 400780028
KGRF - Fort Lewis/Gray, Washington, USA
Distance from station: SW 48mi, 77km
Updated: Tue, 31-Mar-2020 12:58am PDT

 Wind from S
Wind: S 8 mph , 13 km/h
Temperature: 39°F , 4°C
Wind Chill: 33°F , 1°C
Dew Point: 39°F , 4°C
Humidity: 100%
Barometer: 29.92 inHg , 1013.2 hPa
Visibility: 10 miles , 16 km
Cloud details: 2600 ft
2020/03/31 07:58 KGRF 310758Z AUTO 17007KT 10SM SCT026 04/04 A2992 RMK AO2 RAB23E39 SLP137 P0000 T00440044 401040044 $
 
KAWO - Arlington Muni, Washington, USA
Distance from station: NNW 50mi, 80km
Updated: Tue, 31-Mar-2020 12:56am PDT

 Wind from SSE
Wind: SSE 13 mph , 20 km/h
Temperature: 41°F , 5°C
Wind Chill: 34°F , 1°C
Dew Point: 37°F , 3°C
Humidity: 87%
Barometer: 29.91 inHg , 1012.9 hPa
Visibility: 10 miles , 16 km
Cloud details: 1200 ft
2020/03/31 07:56 KAWO 310756Z AUTO 15011KT 10SM OVC012 05/03 A2991 RMK AO2 RAB31E54 SLP134 P0000 T00500033 401060044